createdAt,value
2017-06-11T00:01:51.147Z,14.60
2017-06-11T00:04:20.566Z,14.50
2017-06-11T00:06:49.439Z,14.50
2017-06-11T00:09:18.436Z,14.40
2017-06-11T00:11:47.707Z,14.30
2017-06-11T00:14:16.660Z,14.40
2017-06-11T00:16:45.491Z,14.40
2017-06-11T00:19:14.707Z,14.40
2017-06-11T00:21:43.553Z,14.40
2017-06-11T00:24:13.250Z,14.30
2017-06-11T00:26:42.169Z,14.40
2017-06-11T00:29:11.143Z,14.40
2017-06-11T00:31:40.111Z,14.30
2017-06-11T00:34:09.192Z,14.30
2017-06-11T00:36:38.135Z,14.40
2017-06-11T00:39:07.326Z,14.40
2017-06-11T00:41:36.530Z,14.30
2017-06-11T00:44:06.760Z,14.10
2017-06-11T00:46:35.661Z,14.00
2017-06-11T00:49:05.452Z,14.10
2017-06-11T00:51:34.436Z,14.20
2017-06-11T00:54:03.527Z,14.10
2017-06-11T00:56:32.494Z,14.20
2017-06-11T00:59:01.365Z,14.00
2017-06-11T01:01:30.320Z,14.00
2017-06-11T01:03:59.244Z,13.90
2017-06-11T01:06:28.220Z,13.90
2017-06-11T01:08:57.077Z,13.90
2017-06-11T01:11:26.015Z,13.90
2017-06-11T01:13:54.844Z,13.90
2017-06-11T01:16:24.440Z,13.90
2017-06-11T01:18:53.372Z,13.90
2017-06-11T01:21:22.387Z,13.90
2017-06-11T01:23:51.310Z,13.80
2017-06-11T01:26:20.191Z,13.70
2017-06-11T01:28:50.097Z,13.70
2017-06-11T01:31:19.292Z,13.70
2017-06-11T01:33:48.173Z,13.70
2017-06-11T01:36:17.145Z,13.60
2017-06-11T01:38:46.003Z,13.60
2017-06-11T01:41:14.838Z,13.60
2017-06-11T01:43:43.710Z,13.60
2017-06-11T01:46:12.610Z,13.60
2017-06-11T01:48:41.514Z,13.60
2017-06-11T01:51:10.480Z,13.50
2017-06-11T01:53:39.575Z,13.50
2017-06-11T01:56:08.573Z,13.50
2017-06-11T01:58:38.422Z,13.50
2017-06-11T02:01:08.756Z,13.50
2017-06-11T02:03:37.632Z,13.50
2017-06-11T02:06:06.709Z,13.50
2017-06-11T02:08:35.991Z,13.50
2017-06-11T02:11:05.017Z,13.60
2017-06-11T02:13:33.953Z,13.60
2017-06-11T02:16:02.904Z,13.60
2017-06-11T02:18:31.803Z,13.60
2017-06-11T02:21:00.679Z,13.60
2017-06-11T02:23:29.578Z,13.60
2017-06-11T02:25:58.505Z,13.70
2017-06-11T02:28:27.361Z,13.70
2017-06-11T02:30:56.450Z,13.70
2017-06-11T02:33:25.322Z,13.70
2017-06-11T02:35:54.269Z,13.70
2017-06-11T02:38:24.016Z,13.60
2017-06-11T02:40:52.885Z,13.60
2017-06-11T02:43:21.874Z,13.60
2017-06-11T02:45:51.014Z,13.60
2017-06-11T02:48:20.013Z,13.50
2017-06-11T02:50:48.930Z,13.50
2017-06-11T02:53:18.195Z,13.50
2017-06-11T02:55:47.173Z,13.40
2017-06-11T02:58:16.084Z,13.30
2017-06-11T03:00:44.994Z,13.20
2017-06-11T03:03:13.998Z,13.30
2017-06-11T03:05:42.983Z,13.60
2017-06-11T03:08:11.999Z,13.50
2017-06-11T03:10:41.748Z,13.40
2017-06-11T03:13:10.722Z,13.30
2017-06-11T03:15:39.633Z,13.40
2017-06-11T03:18:09.231Z,13.50
2017-06-11T03:20:38.241Z,13.70
2017-06-11T03:23:07.592Z,14.20
2017-06-11T03:25:36.563Z,14.80
2017-06-11T03:28:05.733Z,15.20
2017-06-11T03:30:35.020Z,15.50
2017-06-11T03:33:04.460Z,15.70
2017-06-11T03:35:33.367Z,15.90
2017-06-11T03:38:02.595Z,16.00
2017-06-11T03:40:31.503Z,16.00
2017-06-11T03:43:00.298Z,16.20
2017-06-11T03:45:30.353Z,16.20
2017-06-11T03:47:59.528Z,16.40
2017-06-11T03:50:28.520Z,16.40
2017-06-11T03:52:57.545Z,16.40
2017-06-11T03:55:27.404Z,16.50
2017-06-11T03:57:56.224Z,16.60
2017-06-11T04:00:25.162Z,16.60
2017-06-11T04:02:54.483Z,16.70
2017-06-11T04:05:23.487Z,16.70
2017-06-11T04:07:52.659Z,16.90
2017-06-11T04:10:21.539Z,16.90
2017-06-11T04:12:50.553Z,16.90
2017-06-11T04:15:19.512Z,17.00
2017-06-11T04:18:18.640Z,17.00
2017-06-11T04:20:47.511Z,17.10
2017-06-11T04:23:16.393Z,17.20
2017-06-11T04:25:45.442Z,17.20
2017-06-11T04:28:15.202Z,17.30
2017-06-11T04:30:44.091Z,17.20
2017-06-11T04:33:13.050Z,17.20
2017-06-11T04:35:41.926Z,17.20
2017-06-11T04:38:10.796Z,17.10
2017-06-11T04:40:39.648Z,17.10
2017-06-11T04:43:09.593Z,17.10
2017-06-11T04:45:38.508Z,17.20
2017-06-11T04:48:07.984Z,17.30
2017-06-11T04:50:37.068Z,17.70
2017-06-11T04:53:05.966Z,18.30
2017-06-11T04:55:34.935Z,18.70
2017-06-11T04:58:03.786Z,18.90
2017-06-11T05:00:32.680Z,18.50
2017-06-11T05:03:01.591Z,18.20
2017-06-11T05:05:30.481Z,18.00
2017-06-11T05:07:59.337Z,17.90
2017-06-11T05:10:28.303Z,17.80
2017-06-11T05:12:57.180Z,17.80
2017-06-11T05:15:26.107Z,17.80
2017-06-11T05:17:55.381Z,17.80
2017-06-11T05:20:24.526Z,17.70
2017-06-11T05:22:53.411Z,17.70
2017-06-11T05:25:22.303Z,17.70
2017-06-11T05:27:51.204Z,17.90
2017-06-11T05:30:20.100Z,18.40
2017-06-11T05:32:48.974Z,18.70
2017-06-11T05:35:18.241Z,19.10
2017-06-11T05:37:47.211Z,19.40
2017-06-11T05:40:16.098Z,20.30
2017-06-11T05:42:45.400Z,21.10
2017-06-11T05:45:14.432Z,20.90
2017-06-11T05:47:43.293Z,20.70
2017-06-11T05:50:12.437Z,21.00
2017-06-11T05:52:41.257Z,21.90
2017-06-11T05:55:10.162Z,22.60
2017-06-11T05:57:39.055Z,23.40
2017-06-11T06:00:08.221Z,22.80
2017-06-11T06:02:37.071Z,22.20
2017-06-11T06:05:08.194Z,21.50
2017-06-11T06:07:37.033Z,20.60
2017-06-11T06:10:12.686Z,20.00
2017-06-11T06:12:41.566Z,19.90
2017-06-11T06:15:11.646Z,20.00
2017-06-11T06:17:41.637Z,20.40
2017-06-11T06:20:10.736Z,20.60
2017-06-11T06:22:39.741Z,21.00
2017-06-11T06:25:09.015Z,22.10
2017-06-11T06:27:37.877Z,22.30
2017-06-11T06:30:08.221Z,22.00
2017-06-11T06:32:39.453Z,22.00
2017-06-11T06:35:08.419Z,22.50
2017-06-11T06:37:37.311Z,23.20
2017-06-11T06:40:09.516Z,23.30
2017-06-11T06:42:38.343Z,22.90
2017-06-11T06:45:09.504Z,22.70
2017-06-11T06:47:38.759Z,23.50
2017-06-11T06:50:08.119Z,24.60
2017-06-11T06:52:37.002Z,25.60
2017-06-11T06:55:09.776Z,26.40
2017-06-11T06:57:39.097Z,25.40
2017-06-11T07:00:10.513Z,24.60
2017-06-11T07:02:39.637Z,24.00
2017-06-11T07:05:11.585Z,24.60
2017-06-11T07:07:40.505Z,25.40
2017-06-11T07:10:13.992Z,25.60
2017-06-11T07:12:42.918Z,24.80
2017-06-11T07:15:11.849Z,24.00
2017-06-11T07:17:40.670Z,23.20
2017-06-11T07:20:14.489Z,22.70
2017-06-11T07:22:43.406Z,22.60
2017-06-11T07:25:14.059Z,22.50
2017-06-11T07:27:42.968Z,22.60
2017-06-11T07:30:13.055Z,23.60
2017-06-11T07:32:42.113Z,23.70
2017-06-11T07:35:13.631Z,24.50
2017-06-11T07:37:42.621Z,25.50
2017-06-11T07:40:13.703Z,25.80
2017-06-11T07:42:42.602Z,26.20
2017-06-11T07:45:12.900Z,26.20
2017-06-11T07:47:41.846Z,25.50
2017-06-11T07:50:12.778Z,25.10
2017-06-11T07:52:41.754Z,24.60
2017-06-11T07:55:10.845Z,24.30
2017-06-11T07:57:39.757Z,24.20
2017-06-11T08:00:12.274Z,23.80
2017-06-11T08:02:41.206Z,24.00
2017-06-11T08:05:12.215Z,24.20
2017-06-11T08:07:41.202Z,25.00
2017-06-11T08:10:14.712Z,26.50
2017-06-11T08:12:43.616Z,27.70
2017-06-11T08:15:15.173Z,28.30
2017-06-11T08:17:44.079Z,29.30
2017-06-11T08:20:14.345Z,29.50
2017-06-11T08:22:43.254Z,29.90
2017-06-11T08:25:13.580Z,30.30
2017-06-11T08:27:42.543Z,29.70
2017-06-11T08:30:13.704Z,30.10
2017-06-11T08:32:42.739Z,30.10
2017-06-11T08:35:11.916Z,30.60
2017-06-11T08:37:40.791Z,29.80
2017-06-11T08:40:10.541Z,30.20
2017-06-11T08:42:39.463Z,30.60
2017-06-11T08:45:11.504Z,30.50
2017-06-11T08:47:40.460Z,31.50
2017-06-11T08:50:11.870Z,31.20
2017-06-11T08:52:40.902Z,31.70
2017-06-11T08:55:16.347Z,32.80
2017-06-11T08:57:45.832Z,33.30
2017-06-11T09:00:16.806Z,33.30
2017-06-11T09:02:45.753Z,33.10
2017-06-11T09:05:14.746Z,32.70
2017-06-11T09:07:44.784Z,32.30
2017-06-11T09:10:15.047Z,31.40
2017-06-11T09:12:43.996Z,31.40
2017-06-11T09:15:13.410Z,31.00
2017-06-11T09:17:42.313Z,30.90
2017-06-11T09:20:19.078Z,31.00
2017-06-11T09:22:48.013Z,31.30
2017-06-11T09:25:17.293Z,30.90
2017-06-11T09:27:48.802Z,30.70
2017-06-11T09:30:19.093Z,31.50
2017-06-11T09:32:48.070Z,31.10
2017-06-11T09:35:18.033Z,30.30
2017-06-11T09:37:47.206Z,31.40
2017-06-11T09:40:16.969Z,32.60
2017-06-11T09:42:46.020Z,32.70
2017-06-11T09:45:17.840Z,32.10
2017-06-11T09:47:46.758Z,30.50
2017-06-11T09:50:19.773Z,30.10
2017-06-11T09:52:48.724Z,29.90
2017-06-11T09:55:20.130Z,29.20
2017-06-11T09:57:49.085Z,28.50
2017-06-11T10:00:23.197Z,28.20
2017-06-11T10:02:52.102Z,28.00
2017-06-11T10:05:21.148Z,27.90
2017-06-11T10:07:50.330Z,27.90
2017-06-11T10:10:20.598Z,28.30
2017-06-11T10:12:49.548Z,29.20
2017-06-11T10:15:18.725Z,29.80
2017-06-11T10:17:47.728Z,29.80
2017-06-11T10:20:18.186Z,29.10
2017-06-11T10:22:47.125Z,29.10
2017-06-11T10:25:16.427Z,30.10
2017-06-11T10:27:45.455Z,30.80
2017-06-11T10:30:18.070Z,31.90
2017-06-11T10:32:47.185Z,32.00
2017-06-11T10:35:23.898Z,33.30
2017-06-11T10:37:54.579Z,34.20
2017-06-11T10:40:23.523Z,33.60
2017-06-11T10:42:52.478Z,32.60
2017-06-11T10:45:21.553Z,32.10
2017-06-11T10:47:51.027Z,32.20
2017-06-11T10:50:22.446Z,32.90
2017-06-11T10:52:51.401Z,33.30
2017-06-11T10:55:23.751Z,32.40
2017-06-11T10:57:52.656Z,32.20
2017-06-11T11:00:24.841Z,32.00
2017-06-11T11:02:53.767Z,31.10
2017-06-11T11:05:23.222Z,31.20
2017-06-11T11:07:52.298Z,32.30
2017-06-11T11:10:22.249Z,33.10
2017-06-11T11:12:51.343Z,33.60
2017-06-11T11:15:22.143Z,33.10
2017-06-11T11:17:51.307Z,32.70
2017-06-11T11:20:24.498Z,33.30
2017-06-11T11:22:53.502Z,33.60
2017-06-11T11:25:22.733Z,32.30
2017-06-11T11:27:52.827Z,33.10
2017-06-11T11:30:23.436Z,33.90
2017-06-11T11:32:53.262Z,33.70
2017-06-11T11:35:23.123Z,32.20
2017-06-11T11:37:54.068Z,31.30
2017-06-11T11:40:23.050Z,31.10
2017-06-11T11:42:52.110Z,31.70
2017-06-11T11:45:21.365Z,31.90
2017-06-11T11:47:50.315Z,32.20
2017-06-11T11:50:24.263Z,32.20
2017-06-11T11:52:53.213Z,32.60
2017-06-11T11:55:24.054Z,32.50
2017-06-11T11:57:53.045Z,31.30
2017-06-11T12:00:23.716Z,30.60
2017-06-11T12:02:52.623Z,30.70
2017-06-11T12:05:22.797Z,30.80
2017-06-11T12:07:51.744Z,30.90
2017-06-11T12:10:22.030Z,30.80
2017-06-11T12:12:50.917Z,29.90
2017-06-11T12:15:20.755Z,29.90
2017-06-11T12:17:49.694Z,30.20
2017-06-11T12:20:23.044Z,30.60
2017-06-11T12:22:52.082Z,31.00
2017-06-11T12:25:22.797Z,30.60
2017-06-11T12:27:52.604Z,29.80
2017-06-11T12:31:41.965Z,29.80
2017-06-11T12:34:12.374Z,29.60
2017-06-11T12:36:42.672Z,29.20
2017-06-11T12:39:11.687Z,28.70
2017-06-11T12:41:41.714Z,28.40
2017-06-11T12:44:16.741Z,27.70
2017-06-11T12:46:48.678Z,27.40
2017-06-11T12:49:18.672Z,27.40
2017-06-11T12:51:48.164Z,28.00
2017-06-11T12:54:17.591Z,28.10
2017-06-11T12:56:51.981Z,27.70
2017-06-11T12:59:24.575Z,27.90
2017-06-11T13:01:56.912Z,28.10
2017-06-11T13:04:26.328Z,28.50
2017-06-11T13:06:56.141Z,29.00
2017-06-11T13:09:26.742Z,29.60
2017-06-11T13:11:59.443Z,29.90
2017-06-11T13:14:32.497Z,30.00
2017-06-11T13:17:01.508Z,30.20
2017-06-11T13:19:31.220Z,30.20
2017-06-11T13:22:00.229Z,29.80
2017-06-11T13:24:33.067Z,29.90
2017-06-11T13:27:07.581Z,30.00
2017-06-11T13:29:37.582Z,30.30
2017-06-11T13:32:11.772Z,30.40
2017-06-11T13:34:42.799Z,30.30
2017-06-11T13:37:15.586Z,30.10
2017-06-11T13:39:48.978Z,30.10
2017-06-11T13:42:19.180Z,30.20
2017-06-11T13:44:58.396Z,30.30
2017-06-11T13:47:44.137Z,30.10
2017-06-11T13:50:19.895Z,29.60
2017-06-11T13:53:00.546Z,29.20
2017-06-11T13:55:50.363Z,28.70
2017-06-11T13:58:33.414Z,28.60
2017-06-11T14:01:19.156Z,28.00
2017-06-11T14:03:49.319Z,27.80
2017-06-11T14:06:26.191Z,27.80
2017-06-11T14:08:56.821Z,27.80
2017-06-11T14:11:29.512Z,28.30
2017-06-11T14:14:00.870Z,28.70
2017-06-11T14:16:43.316Z,28.80
2017-06-11T14:19:16.286Z,29.00
2017-06-11T14:21:48.509Z,28.90
2017-06-11T14:24:26.686Z,28.50
2017-06-11T14:27:08.551Z,28.40
2017-06-11T14:29:41.963Z,28.40
2017-06-11T14:32:12.220Z,28.20
2017-06-11T14:34:41.530Z,28.20
2017-06-11T14:37:16.506Z,28.40
2017-06-11T14:39:49.171Z,28.10
2017-06-11T14:42:23.119Z,28.20
2017-06-11T14:44:53.840Z,28.40
2017-06-11T14:47:23.818Z,28.40
2017-06-11T14:49:53.492Z,28.50
2017-06-11T14:52:23.768Z,28.20
2017-06-11T14:54:52.902Z,27.80
2017-06-11T14:57:22.945Z,27.80
2017-06-11T14:59:52.568Z,27.90
2017-06-11T15:02:27.137Z,27.80
2017-06-11T15:04:56.231Z,27.70
2017-06-11T15:07:27.375Z,27.80
2017-06-11T15:09:57.335Z,27.70
2017-06-11T15:12:27.460Z,27.70
2017-06-11T15:14:57.574Z,27.80
2017-06-11T15:17:28.271Z,27.60
2017-06-11T15:19:58.708Z,27.60
2017-06-11T15:22:29.336Z,27.60
2017-06-11T15:24:58.357Z,27.60
2017-06-11T15:27:32.413Z,27.60
2017-06-11T15:30:01.724Z,27.50
2017-06-11T15:32:33.604Z,27.40
2017-06-11T15:35:26.112Z,27.30
2017-06-11T15:37:57.168Z,27.20
2017-06-11T15:40:29.266Z,27.20
2017-06-11T15:42:58.392Z,27.10
2017-06-11T15:45:30.045Z,27.30
2017-06-11T15:47:59.396Z,27.30
2017-06-11T15:50:40.982Z,27.10
2017-06-11T15:53:12.711Z,26.90
2017-06-11T15:55:48.792Z,26.80
2017-06-11T15:58:29.635Z,26.70
2017-06-11T16:01:01.025Z,26.60
2017-06-11T16:03:30.159Z,26.80
2017-06-11T16:06:08.382Z,27.00
2017-06-11T16:08:46.810Z,27.10
2017-06-11T16:11:19.352Z,27.10
2017-06-11T16:13:49.193Z,27.00
2017-06-11T16:16:18.645Z,26.90
2017-06-11T16:18:47.821Z,26.80
2017-06-11T16:21:16.874Z,26.70
2017-06-11T16:23:46.695Z,26.60
2017-06-11T16:26:18.201Z,26.60
2017-06-11T16:28:48.217Z,26.60
2017-06-11T16:31:19.843Z,26.60
2017-06-11T16:33:49.406Z,26.80
2017-06-11T16:36:19.002Z,26.70
2017-06-11T16:38:48.217Z,26.70
2017-06-11T16:41:18.891Z,26.60
2017-06-11T16:43:50.956Z,26.60
2017-06-11T16:46:23.374Z,26.50
2017-06-11T16:48:53.397Z,26.50
2017-06-11T16:51:25.648Z,26.40
2017-06-11T16:53:55.650Z,26.50
2017-06-11T16:56:24.973Z,26.40
2017-06-11T16:58:54.083Z,26.50
2017-06-11T17:01:24.642Z,26.50
2017-06-11T17:03:53.715Z,26.50
2017-06-11T17:06:53.499Z,26.50
2017-06-11T17:09:25.104Z,26.50
2017-06-11T17:11:54.264Z,26.40
2017-06-11T17:14:24.860Z,26.40
2017-06-11T17:16:55.549Z,26.40
2017-06-11T17:19:25.632Z,26.40
2017-06-11T17:21:55.429Z,26.40
2017-06-11T17:24:28.044Z,26.20
2017-06-11T17:26:58.413Z,26.20
2017-06-11T17:29:28.699Z,26.00
2017-06-11T17:31:58.000Z,25.80
2017-06-11T17:34:28.060Z,25.80
2017-06-11T17:36:58.017Z,25.70
2017-06-11T17:39:28.093Z,25.40
2017-06-11T17:41:57.310Z,25.20
2017-06-11T17:44:26.753Z,25.20
2017-06-11T17:46:56.086Z,25.10
2017-06-11T17:49:27.635Z,25.10
2017-06-11T17:51:56.628Z,25.10
2017-06-11T17:54:26.309Z,25.10
2017-06-11T17:56:55.376Z,25.10
2017-06-11T17:59:25.312Z,25.00
2017-06-11T18:01:54.439Z,25.00
2017-06-11T18:04:23.660Z,25.00
2017-06-11T18:06:52.794Z,25.00
2017-06-11T18:09:21.952Z,24.90
2017-06-11T18:11:55.724Z,24.80
2017-06-11T18:14:28.330Z,24.80
2017-06-11T18:16:58.923Z,24.70
2017-06-11T18:19:31.344Z,24.60
2017-06-11T18:22:01.400Z,24.50
2017-06-11T18:24:32.112Z,24.50
2017-06-11T18:27:02.319Z,24.50
2017-06-11T18:29:32.359Z,24.30
2017-06-11T18:32:02.373Z,24.00
2017-06-11T18:34:33.556Z,23.90
2017-06-11T18:37:10.651Z,23.70
2017-06-11T18:39:39.804Z,23.60
2017-06-11T18:42:09.025Z,23.70
2017-06-11T18:44:37.984Z,23.70
2017-06-11T18:47:09.797Z,23.60
2017-06-11T18:49:39.123Z,23.50
2017-06-11T18:52:12.525Z,23.40
2017-06-11T18:54:41.664Z,23.20
2017-06-11T18:57:10.739Z,23.10
2017-06-11T18:59:39.969Z,22.90
2017-06-11T19:02:09.311Z,22.80
2017-06-11T19:04:39.359Z,22.70
2017-06-11T19:07:08.896Z,22.70
2017-06-11T19:09:38.863Z,22.40
2017-06-11T19:12:10.645Z,22.40
2017-06-11T19:14:40.025Z,22.40
2017-06-11T19:17:11.339Z,22.40
2017-06-11T19:19:40.503Z,22.20
2017-06-11T19:22:11.938Z,22.10
2017-06-11T19:24:42.643Z,22.10
2017-06-11T19:27:12.635Z,22.10
2017-06-11T19:29:42.892Z,22.20
2017-06-11T19:32:15.843Z,22.00
2017-06-11T19:34:46.157Z,21.90
2017-06-11T19:37:16.820Z,21.70
2017-06-11T19:39:47.871Z,21.80
2017-06-11T19:42:20.014Z,21.70
2017-06-11T19:44:49.350Z,21.70
2017-06-11T19:47:18.496Z,21.70
2017-06-11T19:49:47.669Z,21.80
2017-06-11T19:52:17.582Z,21.80
2017-06-11T19:54:48.545Z,21.80
2017-06-11T19:57:19.313Z,21.80
2017-06-11T19:59:53.387Z,21.80
2017-06-11T20:02:25.231Z,21.60
2017-06-11T20:04:54.383Z,21.60
2017-06-11T20:07:23.605Z,21.60
2017-06-11T20:09:54.004Z,21.70
2017-06-11T20:12:25.374Z,21.60
2017-06-11T20:14:56.430Z,21.60
2017-06-11T20:17:26.292Z,21.50
2017-06-11T20:19:55.389Z,21.60
2017-06-11T20:22:24.731Z,21.50
2017-06-11T20:24:53.802Z,21.40
2017-06-11T20:27:23.308Z,21.30
2017-06-11T20:29:55.102Z,21.30
2017-06-11T20:32:27.424Z,21.30
2017-06-11T20:34:56.945Z,21.30
2017-06-11T20:37:27.143Z,21.30
2017-06-11T20:39:56.135Z,21.30
2017-06-11T20:42:25.251Z,21.20
2017-06-11T20:44:54.821Z,21.30
2017-06-11T20:47:24.022Z,21.20
2017-06-11T20:49:53.018Z,21.20
2017-06-11T20:52:21.988Z,21.30
2017-06-11T20:54:50.998Z,21.40
2017-06-11T20:57:20.031Z,21.60
2017-06-11T20:59:48.982Z,21.70
2017-06-11T21:02:17.891Z,21.70
2017-06-11T21:04:46.824Z,21.80
2017-06-11T21:07:15.827Z,21.80
2017-06-11T21:09:44.774Z,21.80
2017-06-11T21:12:13.776Z,22.00
2017-06-11T21:14:42.712Z,22.10
2017-06-11T21:17:11.713Z,22.10
2017-06-11T21:19:40.752Z,22.00
2017-06-11T21:22:41.212Z,22.00
2017-06-11T21:25:21.122Z,22.00
2017-06-11T21:27:50.087Z,22.10
2017-06-11T21:30:24.491Z,22.00
2017-06-11T21:32:54.913Z,22.00
2017-06-11T21:35:23.929Z,21.90
2017-06-11T21:37:52.942Z,21.90
2017-06-11T21:40:22.363Z,21.80
2017-06-11T21:42:52.412Z,21.70
2017-06-11T21:45:22.567Z,21.70
2017-06-11T21:47:51.596Z,21.60
2017-06-11T21:50:20.970Z,21.60
2017-06-11T21:52:49.868Z,21.50
2017-06-11T21:55:18.884Z,21.50
2017-06-11T21:57:48.804Z,21.50
2017-06-11T22:00:27.155Z,21.40
2017-06-11T22:02:56.072Z,21.40
2017-06-11T22:05:26.728Z,21.30
2017-06-11T22:07:55.665Z,21.20
2017-06-11T22:10:25.566Z,21.20
2017-06-11T22:12:54.474Z,21.20
2017-06-11T22:15:23.812Z,21.20
2017-06-11T22:17:52.663Z,21.20
2017-06-11T22:20:22.659Z,21.30
2017-06-11T22:22:51.764Z,21.30
2017-06-11T22:25:20.689Z,21.40
2017-06-11T22:27:49.704Z,21.40
2017-06-11T22:30:20.125Z,21.40
2017-06-11T22:32:49.078Z,21.40
2017-06-11T22:35:18.060Z,21.50
2017-06-11T22:37:46.957Z,21.50
2017-06-11T22:40:15.971Z,21.50
2017-06-11T22:42:44.854Z,21.50
2017-06-11T22:45:13.819Z,21.50
2017-06-11T22:47:42.741Z,21.50
2017-06-11T22:50:13.517Z,21.50
2017-06-11T22:52:42.422Z,21.50
2017-06-11T22:55:14.290Z,21.50
2017-06-11T22:57:43.161Z,21.50
2017-06-11T23:00:15.195Z,21.40
2017-06-11T23:02:44.125Z,21.40
2017-06-11T23:05:13.056Z,21.40
2017-06-11T23:07:42.782Z,21.30
2017-06-11T23:10:12.499Z,21.30
2017-06-11T23:12:41.394Z,21.20
2017-06-11T23:15:11.969Z,21.20
2017-06-11T23:17:40.966Z,21.20
2017-06-11T23:20:13.004Z,21.10
2017-06-11T23:22:41.918Z,21.00
2017-06-11T23:25:11.043Z,20.90
2017-06-11T23:27:39.927Z,20.90
2017-06-11T23:30:14.112Z,20.90
2017-06-11T23:32:43.064Z,20.90
2017-06-11T23:35:13.006Z,20.80
2017-06-11T23:37:41.914Z,20.70
2017-06-11T23:40:14.551Z,20.70
2017-06-11T23:42:43.516Z,20.70
2017-06-11T23:45:13.342Z,20.80
2017-06-11T23:47:42.733Z,20.80
2017-06-11T23:50:13.038Z,20.90
2017-06-11T23:52:41.897Z,20.90
2017-06-11T23:55:12.224Z,20.90
2017-06-11T23:57:41.116Z,20.90
